Time;durP1;ratioP1;P1;durP2;ratioP2;P2;SDS_P1;SDS_P2;PMS_P1;PMS_P2;Temp;Humidity;BMP_temperature;BMP_pressure;BME280_temperature;BME280_humidity;BME280_pressure;Samples;Min_cycle;Max_cycle;Signal;HPM_P1;HPM_P2
2022/10/06 00:00:50;;;;;;;7.18;2.30;;;;;;;15.53;83.50;102015.34;5018465;28;20103;-53
2022/10/06 00:03:21;;;;;;;9.27;2.22;;;;;;;15.53;83.43;102020.84;5034561;28;20049;-57
2022/10/06 00:05:59;;;;;;;9.63;2.67;;;;;;;15.54;83.04;102022.53;5034332;28;20538;-57
2022/10/06 00:08:27;;;;;;;10.50;2.78;;;;;;;15.53;83.00;102031.03;5030463;28;20148;-55
2022/10/06 00:10:55;;;;;;;9.32;2.35;;;;;;;15.54;83.30;102043.69;5021298;28;20081;-56
2022/10/06 00:13:24;;;;;;;8.75;2.53;;;;;;;15.52;83.19;102051.38;5035580;28;20037;-52
2022/10/06 00:15:52;;;;;;;8.65;2.40;;;;;;;15.51;83.38;102046.94;5034625;28;20041;-54
2022/10/06 00:18:20;;;;;;;7.50;2.45;;;;;;;15.51;83.79;102060.69;5038758;28;20051;-56
2022/10/06 00:20:58;;;;;;;8.32;2.42;;;;;;;15.47;84.07;102059.59;5035305;28;20096;-54
2022/10/06 00:23:27;;;;;;;7.15;1.95;;;;;;;15.44;83.96;102068.34;5034539;28;20120;-54
2022/10/06 00:25:55;;;;;;;8.90;2.90;;;;;;;15.40;85.09;102067.25;5031169;28;20080;-58
2022/10/06 00:28:23;;;;;;;7.50;2.25;;;;;;;15.37;84.92;102078.78;5029353;28;20045;-55
2022/10/06 00:30:52;;;;;;;9.02;3.00;;;;;;;15.34;84.75;102083.72;5033846;28;20045;-52
2022/10/06 00:33:20;;;;;;;8.63;2.72;;;;;;;15.35;85.05;102087.28;5034055;28;20488;-58
2022/10/06 00:35:54;;;;;;;11.55;2.72;;;;;;;15.33;84.63;102084.81;5058019;28;20109;-57
2022/10/06 00:38:22;;;;;;;9.13;2.65;;;;;;;15.31;85.20;102094.41;5041802;28;20047;-55
2022/10/06 00:40:50;;;;;;;11.07;3.00;;;;;;;15.29;84.91;102102.09;5040375;28;20053;-57
2022/10/06 00:43:53;;;;;;;7.47;2.28;;;;;;;15.27;84.55;102099.63;5067702;28;20064;-56
2022/10/06 00:46:30;;;;;;;10.25;3.08;;;;;;;15.25;84.40;102104.56;5033931;28;20052;-54
2022/10/06 00:49:13;;;;;;;12.70;2.72;;;;;;;15.23;83.94;102114.16;5034151;28;20042;-55
2022/10/06 00:51:44;;;;;;;8.27;2.45;;;;;;;15.24;83.38;102122.09;5017531;28;20447;-54
2022/10/06 00:54:12;;;;;;;10.65;2.80;;;;;;;15.24;83.36;102122.09;5017337;28;20111;-57
2022/10/06 00:56:40;;;;;;;8.25;2.40;;;;;;;15.22;83.08;102124.28;5033646;28;20041;-55
2022/10/06 00:59:10;;;;;;;12.60;2.80;;;;;;;15.22;82.62;102128.97;5034714;28;20047;-57
2022/10/06 01:01:41;;;;;;;10.38;2.67;;;;;;;15.17;82.24;102131.69;5003711;28;20107;-56
2022/10/06 01:04:11;;;;;;;9.65;2.80;;;;;;;15.16;82.72;102130.88;5014157;28;20046;-53
2022/10/06 01:06:49;;;;;;;10.02;2.90;;;;;;;15.17;82.49;102131.69;5032926;28;20562;-57
2022/10/06 01:09:18;;;;;;;11.70;3.13;;;;;;;15.16;82.04;102136.34;5030409;28;20060;-58
2022/10/06 01:11:47;;;;;;;15.40;3.13;;;;;;;15.16;81.65;102139.09;5033641;28;20509;-57
2022/10/06 01:14:17;;;;;;;13.48;3.15;;;;;;;15.16;81.49;102146.53;5015170;28;20578;-55
2022/10/06 01:16:46;;;;;;;12.45;3.05;;;;;;;15.10;81.36;102149.25;5034470;28;20411;-54
2022/10/06 01:19:36;;;;;;;8.95;2.90;;;;;;;15.08;80.86;102156.06;5034516;28;20389;-55
2022/10/06 01:22:07;;;;;;;13.07;3.60;;;;;;;15.09;80.57;102155.00;5017189;28;20068;-54
2022/10/06 01:24:35;;;;;;;15.25;3.38;;;;;;;15.08;80.65;102158.81;5015460;28;20044;-54
2022/10/06 01:27:04;;;;;;;9.50;3.38;;;;;;;15.09;80.71;102166.78;5033679;28;20045;-53
2022/10/06 01:29:32;;;;;;;11.68;2.90;;;;;;;15.08;80.27;102183.50;5046347;28;20048;-54
2022/10/06 01:32:00;;;;;;;8.98;2.65;;;;;;;15.04;80.65;102183.22;5052942;28;20053;-52
2022/10/06 01:34:28;;;;;;;10.77;2.75;;;;;;;15.02;80.88;102179.09;5021499;28;20403;-56
2022/10/06 01:36:56;;;;;;;16.13;3.42;;;;;;;15.02;81.11;102181.84;5016646;28;20107;-56
2022/10/06 01:39:24;;;;;;;13.00;3.25;;;;;;;15.02;80.96;102190.06;5040510;28;20048;-55
2022/10/06 01:41:53;;;;;;;14.98;3.15;;;;;;;15.00;81.00;102192.25;5016381;28;20133;-56
2022/10/06 01:44:20;;;;;;;10.25;2.70;;;;;;;14.98;81.25;102194.44;5043471;28;20120;-55
2022/10/06 01:46:50;;;;;;;10.98;2.78;;;;;;;14.97;81.25;102193.63;5033176;28;20092;-54
2022/10/06 01:49:18;;;;;;;14.52;3.13;;;;;;;14.96;81.67;102191.13;5019868;28;20041;-58
2022/10/06 01:51:46;;;;;;;11.85;2.75;;;;;;;14.96;81.98;102194.72;5032174;28;20049;-55
2022/10/06 01:54:14;;;;;;;11.65;2.53;;;;;;;14.96;82.00;102202.09;5033748;28;20117;-55
2022/10/06 01:56:42;;;;;;;8.75;2.90;;;;;;;14.94;82.02;102204.31;5030272;28;20096;-57
2022/10/06 01:59:10;;;;;;;13.05;3.03;;;;;;;14.92;82.17;102210.06;5034712;28;20047;-54
2022/10/06 02:01:38;;;;;;;14.70;2.78;;;;;;;14.86;81.73;102214.69;5039399;28;20041;-53
2022/10/06 02:04:06;;;;;;;11.25;2.90;;;;;;;14.82;81.86;102216.28;5032118;28;20064;-56
2022/10/06 02:06:34;;;;;;;12.32;2.67;;;;;;;14.80;81.59;102217.63;5012943;28;20141;-53
2022/10/06 02:09:03;;;;;;;9.65;2.58;;;;;;;14.75;82.08;102218.44;5027701;28;20054;-56
2022/10/06 02:11:30;;;;;;;10.35;2.83;;;;;;;14.74;82.19;102227.72;5024324;28;20038;-53
2022/10/06 02:14:00;;;;;;;10.43;2.97;;;;;;;14.73;82.08;102226.09;5018820;28;20099;-53
2022/10/06 02:16:28;;;;;;;11.30;2.60;;;;;;;14.73;81.94;102231.56;5032123;28;20045;-55
2022/10/06 02:18:56;;;;;;;10.20;2.58;;;;;;;14.74;81.98;102233.22;5032419;28;20052;-53
2022/10/06 02:21:24;;;;;;;11.18;2.65;;;;;;;14.75;81.75;102236.81;5034716;28;20455;-59
2022/10/06 02:23:52;;;;;;;11.65;3.15;;;;;;;14.72;81.50;102240.06;5031762;28;20523;-54
2022/10/06 02:26:19;;;;;;;13.60;3.10;;;;;;;14.71;81.75;102247.47;5032239;28;20056;-52
2022/10/06 02:28:48;;;;;;;12.82;3.28;;;;;;;14.70;81.57;102243.06;5031997;28;20080;-54
2022/10/06 02:31:20;;;;;;;8.73;2.42;;;;;;;14.69;81.67;102246.91;5032633;28;20080;-54
2022/10/06 02:33:48;;;;;;;11.98;3.03;;;;;;;14.66;81.52;102259.22;5031731;28;20053;-58
2022/10/06 02:36:17;;;;;;;12.50;3.45;;;;;;;14.66;81.51;102263.88;5058166;28;20037;-54
2022/10/06 02:38:45;;;;;;;9.93;2.88;;;;;;;14.62;81.75;102265.47;5026533;28;20076;-54
2022/10/06 02:41:13;;;;;;;9.32;3.50;;;;;;;14.63;81.96;102259.75;5033376;28;20038;-55
2022/10/06 02:43:40;;;;;;;12.30;3.08;;;;;;;14.61;81.41;102278.38;5032249;28;20457;-55
2022/10/06 02:46:11;;;;;;;11.18;2.90;;;;;;;14.58;81.95;102273.41;5014980;28;20108;-57
2022/10/06 02:48:44;;;;;;;14.00;3.03;;;;;;;14.56;81.95;102272.03;5026252;28;20084;-58
2022/10/06 02:51:17;;;;;;;10.98;2.90;;;;;;;14.55;82.05;102278.56;5012863;28;20504;-56
2022/10/06 02:53:49;;;;;;;9.52;2.83;;;;;;;14.51;81.96;102288.41;5024677;28;20026;-53
2022/10/06 02:56:22;;;;;;;12.52;3.13;;;;;;;14.44;82.26;102297.66;5016384;28;20083;-55
2022/10/06 02:58:51;;;;;;;10.40;3.08;;;;;;;14.46;82.43;102297.41;5015706;28;20076;-55
2022/10/06 03:01:26;;;;;;;13.90;3.22;;;;;;;14.48;82.48;102303.47;5016946;28;20815;-56
2022/10/06 03:03:57;;;;;;;11.57;3.10;;;;;;;14.46;81.99;102302.88;5037701;28;20492;-58
2022/10/06 03:06:27;;;;;;;10.55;2.55;;;;;;;14.42;81.79;102316.25;5031685;28;20037;-53
2022/10/06 03:09:06;;;;;;;10.52;3.13;;;;;;;14.35;81.85;102321.13;5020613;28;20050;-57
2022/10/06 03:11:37;;;;;;;10.43;2.80;;;;;;;14.29;82.10;102316.69;5030530;28;20111;-58
2022/10/06 03:14:06;;;;;;;11.27;3.08;;;;;;;14.27;82.42;102311.44;5032864;28;20041;-56
2022/10/06 03:16:39;;;;;;;16.48;3.00;;;;;;;14.25;82.25;102318.25;4999545;28;20045;-57
2022/10/06 03:19:11;;;;;;;13.18;3.33;;;;;;;14.22;82.71;102335.25;5020806;28;20046;-58
2022/10/06 03:21:43;;;;;;;10.73;3.33;;;;;;;14.25;82.76;102323.75;5062689;28;20042;-53
2022/10/06 03:24:12;;;;;;;13.57;3.38;;;;;;;14.24;82.01;102333.06;5042206;28;20044;-55
2022/10/06 03:26:43;;;;;;;12.73;3.15;;;;;;;14.22;82.09;102344.28;5022966;28;20074;-54
2022/10/06 03:29:14;;;;;;;14.07;3.47;;;;;;;14.21;82.24;102339.88;5032150;28;20038;-57
2022/10/06 03:31:46;;;;;;;12.18;3.25;;;;;;;14.22;82.20;102335.25;5017750;28;20396;-57
2022/10/06 03:34:14;;;;;;;12.90;3.28;;;;;;;14.21;81.92;102350.00;5019764;28;20541;-54
2022/10/06 03:36:43;;;;;;;12.52;3.33;;;;;;;14.16;81.95;102353.50;5012215;28;20057;-50
2022/10/06 03:39:11;;;;;;;12.75;3.53;;;;;;;14.15;82.08;102357.34;5029689;28;20081;-53
2022/10/06 03:41:40;;;;;;;11.55;3.00;;;;;;;14.11;82.30;102360.84;5031119;28;20096;-51
2022/10/06 03:44:09;;;;;;;12.20;3.28;;;;;;;14.11;82.41;102367.16;5026091;28;20049;-51
2022/10/06 03:46:40;;;;;;;11.40;2.88;;;;;;;14.06;82.39;102365.16;5035324;28;20045;-51
2022/10/06 03:49:08;;;;;;;15.93;3.38;;;;;;;14.04;82.83;102363.78;5015596;28;20048;-52
2022/10/06 03:51:39;;;;;;;10.68;2.92;;;;;;;14.03;82.84;102368.44;5034836;28;20184;-58
2022/10/06 03:54:11;;;;;;;13.27;3.40;;;;;;;14.04;83.04;102377.47;5015145;28;20092;-57
2022/10/06 03:56:42;;;;;;;16.98;4.25;;;;;;;14.01;83.13;102375.25;5022093;28;20444;-57
2022/10/06 03:59:16;;;;;;;12.35;3.22;;;;;;;14.02;83.26;102385.13;5031706;28;20037;-58
2022/10/06 04:01:46;;;;;;;12.13;3.05;;;;;;;13.98;83.17;102393.03;5018846;28;20042;-55
2022/10/06 04:04:45;;;;;;;10.63;2.97;;;;;;;13.98;83.46;102390.28;5031662;28;20049;-54
2022/10/06 04:07:13;;;;;;;17.95;3.92;;;;;;;13.98;83.47;102397.69;5019680;28;20041;-52
2022/10/06 04:09:40;;;;;;;11.52;3.00;;;;;;;13.94;83.70;102416.53;5034410;28;20068;-54
2022/10/06 04:12:10;;;;;;;10.15;3.17;;;;;;;13.91;83.80;102413.47;5034466;28;20058;-54
2022/10/06 04:14:38;;;;;;;8.48;2.95;;;;;;;13.90;84.03;102420.84;5018127;28;20068;-57
2022/10/06 04:17:07;;;;;;;13.63;2.75;;;;;;;13.90;83.83;102414.53;5036873;28;20045;-52
2022/10/06 04:19:38;;;;;;;8.35;2.58;;;;;;;13.85;84.28;102420.78;5034132;28;20583;-54
2022/10/06 04:22:06;;;;;;;11.57;3.10;;;;;;;13.83;84.49;102428.44;5034275;28;20053;-54
2022/10/06 04:24:34;;;;;;;12.35;3.20;;;;;;;13.83;84.23;102433.91;5036983;28;20043;-52
2022/10/06 04:29:55;;;;;;;10.90;2.75;;;;;;;13.82;84.51;102443.19;5031092;28;20497;-64
2022/10/06 04:32:23;;;;;;;13.15;3.00;;;;;;;13.82;84.54;102435.81;5008198;28;20045;-63
2022/10/06 04:34:51;;;;;;;15.15;3.60;;;;;;;13.79;84.58;102440.97;5034248;28;20045;-61
2022/10/06 04:37:18;;;;;;;14.68;3.55;;;;;;;13.78;84.83;102448.38;5033592;28;20037;-61
2022/10/06 04:39:46;;;;;;;11.00;3.03;;;;;;;13.79;84.49;102446.44;5033213;28;20045;-62
2022/10/06 04:42:14;;;;;;;12.18;3.53;;;;;;;13.74;84.98;102447.19;5035408;28;20037;-63
2022/10/06 04:44:41;;;;;;;12.23;3.42;;;;;;;13.76;84.98;102457.91;5035566;28;20041;-62
2022/10/06 04:47:09;;;;;;;10.52;3.30;;;;;;;13.73;85.00;102448.25;5001959;28;20395;-63
2022/10/06 04:49:37;;;;;;;10.90;3.03;;;;;;;13.73;85.27;102452.91;5034298;28;20064;-63
2022/10/06 04:52:05;;;;;;;12.23;3.20;;;;;;;13.68;85.47;102461.88;5033943;28;20548;-63
2022/10/06 04:54:36;;;;;;;12.95;3.60;;;;;;;13.68;84.99;102464.59;5033561;28;20080;-60
2022/10/06 04:57:05;;;;;;;13.98;3.40;;;;;;;13.70;85.09;102467.09;5035574;28;20045;-62
2022/10/06 05:00:33;;;;;;;12.25;3.50;;;;;;;13.67;85.19;102467.63;5018017;28;20488;-62
2022/10/06 05:02:37;;;;;;;13.48;3.85;;;;;;;13.64;85.39;102475.25;5030512;28;20104;-59
2022/10/06 05:05:06;;;;;;;13.60;3.50;;;;;;;13.63;85.24;102476.31;5017447;28;20554;-59
2022/10/06 05:07:34;;;;;;;16.48;4.05;;;;;;;13.61;85.02;102473.00;5037013;28;20120;-59
2022/10/06 05:10:02;;;;;;;13.57;3.63;;;;;;;13.62;85.34;102488.34;5034061;28;20065;-60
2022/10/06 05:12:31;;;;;;;12.75;4.13;;;;;;;13.60;84.90;102495.16;5014272;28;20496;-61
2022/10/06 05:14:59;;;;;;;14.25;4.13;;;;;;;13.58;85.24;102505.53;5016676;28;20046;-61
2022/10/06 05:17:27;;;;;;;12.75;3.72;;;;;;;13.56;85.26;102499.47;5040738;28;20076;-59
2022/10/06 05:20:00;;;;;;;15.25;4.25;;;;;;;13.55;84.88;102506.84;5034957;28;20128;-57
2022/10/06 05:22:28;;;;;;;12.00;3.60;;;;;;;13.55;85.17;102508.75;5036530;28;20120;-60
2022/10/06 05:24:56;;;;;;;15.43;4.03;;;;;;;13.44;85.13;102510.47;5018140;28;20041;-54
2022/10/06 05:27:23;;;;;;;16.05;4.30;;;;;;;13.36;85.95;102524.56;5034721;28;20041;-59
2022/10/06 05:29:51;;;;;;;16.65;3.72;;;;;;;13.31;86.29;102528.03;5062479;28;20083;-60
2022/10/06 05:32:19;;;;;;;13.60;4.38;;;;;;;13.28;86.06;102534.00;5012673;28;20046;-59
2022/10/06 05:34:47;;;;;;;20.60;3.80;;;;;;;13.26;86.14;102535.31;4989987;28;20046;-59
2022/10/06 05:37:15;;;;;;;12.75;3.38;;;;;;;13.28;86.56;102535.94;5013573;28;20034;-57
2022/10/06 05:39:43;;;;;;;16.38;3.80;;;;;;;13.33;86.34;102536.84;5031735;28;20118;-59
2022/10/06 05:42:11;;;;;;;14.15;4.03;;;;;;;13.35;85.69;102542.91;5034410;28;20055;-61
2022/10/06 05:44:39;;;;;;;14.43;4.00;;;;;;;13.33;85.27;102547.78;5047875;28;20040;-61
2022/10/06 05:47:09;;;;;;;16.40;3.70;;;;;;;13.32;85.57;102557.06;5029831;28;20040;-61
2022/10/06 05:49:38;;;;;;;15.73;3.92;;;;;;;13.31;85.34;102554.59;4332102;28;10000722;-61
2022/10/06 05:52:06;;;;;;;13.25;3.45;;;;;;;13.31;85.21;102560.06;5046945;28;20049;-60
2022/10/06 05:54:35;;;;;;;12.45;3.58;;;;;;;13.28;85.26;102557.81;5035080;28;20076;-61
2022/10/06 05:57:05;;;;;;;16.45;3.97;;;;;;;13.27;85.16;102567.91;5021048;28;20133;-59
2022/10/06 05:59:33;;;;;;;12.55;3.47;;;;;;;13.26;85.42;102562.69;5016600;28;20448;-61
2022/10/06 06:02:03;;;;;;;17.38;3.53;;;;;;;13.25;85.25;102577.41;5022357;28;20080;-60
2022/10/06 06:04:36;;;;;;;19.38;3.40;;;;;;;13.25;85.56;102582.91;5024136;28;20072;-59
2022/10/06 06:07:04;;;;;;;14.68;3.88;;;;;;;13.25;85.26;102583.72;5027789;28;20380;-60
2022/10/06 06:09:33;;;;;;;13.98;3.63;;;;;;;13.22;85.18;102593.25;5041148;28;20060;-58
2022/10/06 06:12:03;;;;;;;13.10;3.78;;;;;;;13.24;86.08;102593.03;5036836;28;20046;-58
2022/10/06 06:17:29;;;;;;;13.90;3.85;;;;;;;13.24;85.38;102598.50;5015223;28;20038;-58
2022/10/06 06:19:57;;;;;;;15.02;3.75;;;;;;;13.22;85.45;102601.47;5034344;28;20423;-60
2022/10/06 06:22:27;;;;;;;16.77;5.20;;;;;;;13.22;85.30;102606.94;5024529;28;20045;-58
2022/10/06 06:24:54;;;;;;;13.20;3.70;;;;;;;13.27;86.09;102610.88;5012866;28;20063;-61
2022/10/06 06:27:22;;;;;;;13.13;4.07;;;;;;;13.26;85.40;102606.47;5028826;28;20578;-59
2022/10/06 06:29:50;;;;;;;18.65;4.57;;;;;;;13.26;85.24;102609.22;5028756;28;20046;-59
2022/10/06 06:32:17;;;;;;;23.77;4.82;;;;;;;13.22;84.64;102611.59;5023771;28;20137;-54
2022/10/06 06:34:45;;;;;;;20.85;5.28;;;;;;;13.20;84.69;102622.78;5024788;28;20041;-57
2022/10/06 06:37:14;;;;;;;15.30;4.35;;;;;;;13.19;85.84;102615.63;5014503;28;20529;-56
2022/10/06 06:39:45;;;;;;;17.80;4.60;;;;;;;13.24;85.31;102619.56;5032831;28;20046;-56
2022/10/06 06:42:13;;;;;;;18.20;4.65;;;;;;;13.24;84.75;102630.50;5015732;28;20551;-56
2022/10/06 06:44:53;;;;;;;16.98;5.03;;;;;;;13.25;84.86;102632.16;5005283;28;20499;-64
2022/10/06 06:47:27;;;;;;;18.25;4.97;;;;;;;13.27;84.92;102636.34;5047128;28;20439;-58
2022/10/06 06:49:58;;;;;;;16.10;4.78;;;;;;;13.30;84.19;102633.16;5025998;28;20060;-59
2022/10/06 06:52:28;;;;;;;15.73;4.80;;;;;;;13.27;85.09;102644.56;5016895;28;20053;-60
2022/10/06 06:54:56;;;;;;;13.45;4.22;;;;;;;13.26;84.66;102640.16;5034733;28;20052;-58
2022/10/06 06:57:25;;;;;;;14.50;4.15;;;;;;;13.21;84.83;102645.53;5020251;28;20038;-57
2022/10/06 06:59:55;;;;;;;15.73;3.95;;;;;;;13.20;84.60;102649.31;5025859;28;20065;-58
2022/10/06 07:02:28;;;;;;;18.63;5.03;;;;;;;13.22;85.33;102656.22;5035806;28;20150;-56
2022/10/06 07:04:56;;;;;;;16.00;4.47;;;;;;;13.22;84.83;102656.22;5020410;28;20042;-56
2022/10/06 07:07:24;;;;;;;14.85;3.70;;;;;;;13.26;86.49;102651.09;5012549;28;20456;-61
2022/10/06 07:09:52;;;;;;;18.60;4.57;;;;;;;13.24;84.94;102666.09;5032819;28;20068;-64
2022/10/06 07:12:23;;;;;;;20.88;4.65;;;;;;;13.26;85.33;102670.25;5032420;28;20054;-60
2022/10/06 07:26:07;;;;;;;16.90;4.72;;;;;;;13.24;84.22;102697.03;5039515;28;19921;-61
2022/10/06 07:28:35;;;;;;;15.98;4.32;;;;;;;13.20;84.67;102701.31;5023434;28;20037;-59
2022/10/06 07:31:03;;;;;;;25.45;5.22;;;;;;;13.20;84.70;102704.91;5056292;28;20049;-58
2022/10/06 07:33:32;;;;;;;14.90;4.25;;;;;;;13.25;84.17;102706.91;5006686;28;20113;-57
2022/10/06 07:36:03;;;;;;;18.30;4.30;;;;;;;13.24;84.26;102707.16;5036698;28;20033;-55
2022/10/06 07:38:33;;;;;;;14.65;4.03;;;;;;;13.26;84.33;102726.94;5035901;28;20068;-53
2022/10/06 07:41:01;;;;;;;21.00;4.55;;;;;;;13.26;84.00;102726.94;5036124;28;20563;-54
2022/10/06 07:43:53;;;;;;;17.83;5.05;;;;;;;13.27;84.26;102729.44;5035699;28;20107;-57
2022/10/06 07:46:23;;;;;;;19.48;4.65;;;;;;;13.31;84.36;102740.75;5019631;28;20049;-54
2022/10/06 07:48:59;;;;;;;15.65;4.25;;;;;;;13.31;84.37;102746.22;5035335;28;20042;-57
2022/10/06 07:51:27;;;;;;;15.63;4.22;;;;;;;13.27;84.14;102745.00;5019534;28;20470;-54
2022/10/06 07:53:57;;;;;;;17.13;4.43;;;;;;;13.26;84.44;102748.81;5035977;28;20038;-55
2022/10/06 07:56:43;;;;;;;19.48;4.80;;;;;;;13.35;85.41;102740.03;5035819;28;20046;-56
2022/10/06 07:59:11;;;;;;;19.48;4.78;;;;;;;13.36;84.37;102749.09;5035597;28;20041;-57
2022/10/06 08:01:38;;;;;;;21.40;4.55;;;;;;;13.34;84.36;102745.75;5035481;28;20408;-59
2022/10/06 08:04:06;;;;;;;16.10;4.50;;;;;;;13.37;84.09;102757.06;5035011;28;20096;-57
2022/10/06 08:06:34;;;;;;;19.27;4.38;;;;;;;13.37;83.70;102759.81;5036657;28;20041;-58
2022/10/06 08:09:03;;;;;;;19.67;4.55;;;;;;;13.38;83.60;102755.16;5018694;28;20057;-58
2022/10/06 08:11:31;;;;;;;14.15;4.00;;;;;;;13.39;84.02;102751.34;5054883;28;20041;-57
2022/10/06 08:13:58;;;;;;;18.17;4.88;;;;;;;13.41;84.08;102760.16;5032452;28;20037;-57
2022/10/06 08:16:28;;;;;;;18.80;5.18;;;;;;;13.42;84.04;102761.78;5016852;28;20038;-59
2022/10/06 08:18:58;;;;;;;20.98;4.70;;;;;;;13.47;84.07;102767.41;5020661;28;20116;-59
2022/10/06 08:21:28;;;;;;;16.45;4.35;;;;;;;13.51;84.32;102771.31;5035302;28;20042;-54
2022/10/06 08:23:57;;;;;;;18.33;4.88;;;;;;;13.57;84.49;102778.59;5034560;28;20034;-58
2022/10/06 08:26:26;;;;;;;18.92;4.43;;;;;;;13.54;83.53;102776.34;5018461;28;20049;-53
2022/10/06 08:29:01;;;;;;;15.55;5.07;;;;;;;13.49;83.26;102780.84;5035324;28;20037;-55
2022/10/06 08:31:30;;;;;;;19.75;5.40;;;;;;;13.53;83.89;102782.88;5034980;28;20476;-56
2022/10/06 08:34:00;;;;;;;17.55;4.35;;;;;;;13.57;84.58;102778.59;5067532;28;20049;-55
2022/10/06 08:36:28;;;;;;;16.55;4.43;;;;;;;13.56;83.47;102782.38;5034801;28;20133;-54
2022/10/06 08:38:59;;;;;;;15.98;4.43;;;;;;;13.60;83.34;102791.78;5034047;28;20041;-55
2022/10/06 08:41:49;;;;;;;14.57;4.28;;;;;;;13.63;84.18;102799.53;5035496;28;20039;-58
2022/10/06 08:44:20;;;;;;;12.80;4.07;;;;;;;13.66;83.84;102800.13;5018494;28;20056;-58
2022/10/06 08:46:49;;;;;;;17.17;4.07;;;;;;;13.64;84.39;102812.16;5018377;28;20060;-57
2022/10/06 08:49:22;;;;;;;14.70;4.03;;;;;;;13.67;83.96;102810.03;5017460;28;20046;-60
2022/10/06 08:51:59;;;;;;;14.80;4.05;;;;;;;13.69;83.95;102808.72;5034208;28;20095;-59
2022/10/06 08:54:39;;;;;;;13.88;3.83;;;;;;;13.73;83.62;102809.88;5034144;28;20049;-57
2022/10/06 08:57:20;;;;;;;16.65;4.60;;;;;;;13.77;83.72;102811.06;5034380;28;20128;-54
2022/10/06 08:59:51;;;;;;;21.75;4.70;;;;;;;13.74;83.07;102806.06;5033713;28;20112;-57
2022/10/06 09:02:40;;;;;;;21.52;4.97;;;;;;;13.78;83.56;102814.63;5034980;28;20045;-56
2022/10/06 09:05:10;;;;;;;18.25;5.25;;;;;;;13.76;82.84;102820.38;5018229;28;20123;-60
2022/10/06 09:07:51;;;;;;;20.50;4.97;;;;;;;13.78;82.70;102825.59;5033594;28;20128;-63
2022/10/06 09:10:56;;;;;;;15.90;4.50;;;;;;;13.81;83.28;102828.69;5034289;28;20045;-60
2022/10/06 09:13:29;;;;;;;18.45;5.05;;;;;;;13.94;84.96;102835.00;5022578;28;20539;-60
2022/10/06 09:16:06;;;;;;;14.32;4.05;;;;;;;14.03;90.64;102831.63;5017514;28;20460;-56
2022/10/06 09:18:48;;;;;;;13.10;4.35;;;;;;;14.08;86.01;102844.59;5033947;28;20048;-60
2022/10/06 09:21:39;;;;;;;18.05;4.65;;;;;;;14.03;82.88;102848.06;5033799;28;20439;-60
2022/10/06 09:24:16;;;;;;;14.75;4.70;;;;;;;14.02;82.17;102851.91;5033611;28;20051;-56
2022/10/06 09:26:46;;;;;;;18.70;4.85;;;;;;;13.97;81.37;102857.25;5034740;28;20060;-56
2022/10/06 09:29:14;;;;;;;17.25;4.05;;;;;;;13.96;81.19;102847.38;5033307;28;20092;-58
2022/10/06 09:31:46;;;;;;;17.75;4.10;;;;;;;14.04;82.83;102854.38;4997205;28;20042;-59
2022/10/06 09:34:36;;;;;;;11.15;3.60;;;;;;;14.11;84.07;102848.78;5024588;28;20033;-56
2022/10/06 09:37:09;;;;;;;19.48;4.50;;;;;;;14.13;82.06;102857.59;5013724;28;20054;-55
2022/10/06 09:39:39;;;;;;;19.40;4.57;;;;;;;14.25;84.80;102864.72;5031987;28;20124;-53
2022/10/06 09:42:16;;;;;;;18.15;4.72;;;;;;;14.19;81.65;102856.59;5030628;28;20045;-56
2022/10/06 09:44:50;;;;;;;17.38;4.63;;;;;;;14.20;81.76;102861.03;5034184;28;20051;-58
2022/10/06 09:47:31;;;;;;;24.60;4.30;;;;;;;14.19;81.18;102862.09;5019271;28;20096;-60
2022/10/06 09:50:24;;;;;;;12.75;3.75;;;;;;;14.29;83.90;102862.31;5020854;28;20080;-58
2022/10/06 09:52:59;;;;;;;14.27;3.40;;;;;;;14.35;82.80;102861.34;5022665;28;20500;-57
2022/10/06 09:55:39;;;;;;;22.52;4.22;;;;;;;14.34;80.47;102870.66;5032999;28;20041;-58
2022/10/06 09:58:28;;;;;;;18.67;4.03;;;;;;;14.37;80.37;102863.84;5032987;28;20049;-59
2022/10/06 10:01:01;;;;;;;18.38;4.18;;;;;;;14.36;78.96;102862.16;5019474;28;20050;-59
2022/10/06 10:03:51;;;;;;;14.70;3.47;;;;;;;14.34;77.66;102862.44;5042440;28;20053;-58
2022/10/06 10:06:40;;;;;;;14.75;3.65;;;;;;;14.45;78.78;102877.16;5025737;28;20037;-58
2022/10/06 10:09:18;;;;;;;14.68;3.70;;;;;;;14.40;77.36;102866.91;5036581;28;20060;-58
2022/10/06 10:12:28;;;;;;;15.02;3.63;;;;;;;14.38;77.27;102877.31;5037486;28;20044;-57
2022/10/06 10:15:23;;;;;;;14.30;3.47;;;;;;;14.41;76.44;102870.53;5053621;28;20080;-60
2022/10/06 10:18:11;;;;;;;16.33;3.55;;;;;;;14.40;75.23;102869.66;5040885;28;20044;-60
2022/10/06 10:20:54;;;;;;;12.18;3.50;;;;;;;14.44;75.87;102870.03;5023183;28;20045;-58
2022/10/06 10:23:30;;;;;;;12.88;3.35;;;;;;;14.50;76.83;102877.25;5034436;28;20045;-59
2022/10/06 10:26:39;;;;;;;14.20;4.00;;;;;;;14.43;75.10;102877.44;5034152;28;20064;-59
2022/10/06 10:29:31;;;;;;;11.10;3.33;;;;;;;14.47;77.54;102875.00;5025578;28;20124;-59
2022/10/06 10:32:06;;;;;;;11.80;3.88;;;;;;;14.53;76.15;102884.16;5034112;28;20041;-56
2022/10/06 10:34:52;;;;;;;12.20;3.60;;;;;;;14.56;75.51;102881.00;5016528;28;20058;-60
2022/10/06 10:37:27;;;;;;;14.40;3.65;;;;;;;14.63;77.65;102882.50;5033658;28;20041;-59
2022/10/06 10:39:59;;;;;;;13.38;3.33;;;;;;;14.64;77.58;102873.19;5033303;28;20050;-56
2022/10/06 10:42:46;;;;;;;12.70;3.88;;;;;;;14.72;81.65;102876.63;5016397;28;20029;-59
2022/10/06 10:45:24;;;;;;;14.15;3.28;;;;;;;14.69;76.92;102877.94;5033594;28;20037;-59
2022/10/06 10:47:52;;;;;;;9.13;3.00;;;;;;;14.76;77.67;102870.38;5032450;28;20037;-60
2022/10/06 10:50:20;;;;;;;10.98;3.47;;;;;;;14.77;76.53;102869.31;5033549;28;20545;-59
2022/10/06 10:52:49;;;;;;;13.38;3.85;;;;;;;14.78;75.44;102873.72;5034805;28;20099;-57
2022/10/06 10:55:35;;;;;;;13.00;3.30;;;;;;;14.83;75.82;102870.25;5036260;28;20042;-60
2022/10/06 10:58:16;;;;;;;19.08;4.53;;;;;;;14.92;75.56;102874.25;5036376;28;20048;-59
2022/10/06 11:00:48;;;;;;;13.15;3.42;;;;;;;15.02;76.50;102882.66;5022500;28;20104;-56
2022/10/06 11:03:15;;;;;;;13.60;3.88;;;;;;;15.04;74.09;102882.44;5036799;28;20096;-61
2022/10/06 11:05:47;;;;;;;9.18;3.50;;;;;;;15.06;73.62;102877.53;5036119;28;20510;-57
2022/10/06 11:08:27;;;;;;;13.52;3.47;;;;;;;15.03;72.65;102884.34;5037608;28;20054;-58
2022/10/06 11:10:58;;;;;;;12.63;3.67;;;;;;;14.99;72.28;102879.59;5019703;28;20111;-60
2022/10/06 11:13:43;;;;;;;16.48;4.18;;;;;;;15.03;73.72;102888.97;5036241;28;20044;-56
2022/10/06 11:16:24;;;;;;;13.00;3.42;;;;;;;15.02;74.84;102895.56;5026602;28;20072;-63
2022/10/06 11:18:52;;;;;;;13.60;3.25;;;;;;;14.98;73.07;102891.63;5034806;28;20037;-60
2022/10/06 11:21:43;;;;;;;9.30;3.05;;;;;;;15.01;75.88;102888.41;5036143;28;20056;-55
2022/10/06 11:24:23;;;;;;;12.57;3.53;;;;;;;15.00;71.72;102886.75;5037022;28;20099;-57
2022/10/06 11:27:22;;;;;;;14.18;3.78;;;;;;;15.13;77.55;102889.19;5035698;28;20045;-54
2022/10/06 11:30:00;;;;;;;13.38;3.53;;;;;;;15.27;78.23;102885.03;5041253;28;20041;-57
2022/10/06 11:32:51;;;;;;;11.65;3.13;;;;;;;15.23;70.45;102886.59;5033843;28;20049;-58
2022/10/06 11:35:27;;;;;;;16.33;3.88;;;;;;;15.25;71.25;102884.44;5016848;28;20045;-59
2022/10/06 11:38:18;;;;;;;12.55;3.00;;;;;;;15.28;70.81;102878.44;5030468;28;20540;-55
2022/10/06 11:41:01;;;;;;;13.38;3.75;;;;;;;15.26;69.04;102888.84;5020817;28;20494;-57
2022/10/06 11:43:59;;;;;;;13.90;3.70;;;;;;;15.24;68.02;102890.19;5008534;28;20417;-56
2022/10/06 11:46:39;;;;;;;14.77;3.72;;;;;;;15.22;68.49;102886.84;5026121;28;20042;-55
2022/10/06 11:49:50;;;;;;;10.75;3.35;;;;;;;15.18;68.60;102886.53;5013856;28;20045;-60
2022/10/06 11:52:18;;;;;;;11.02;3.10;;;;;;;15.13;69.03;102889.19;5015819;28;20136;-57
2022/10/06 11:54:51;;;;;;;13.25;3.63;;;;;;;15.13;67.68;102886.44;5024654;28;20053;-59
2022/10/06 11:57:22;;;;;;;12.30;3.03;;;;;;;15.17;67.79;102881.28;5030724;28;20042;-59
2022/10/06 12:00:03;;;;;;;13.23;3.53;;;;;;;15.19;67.21;102882.69;5021178;28;20042;-56